Amavisti — V2CR5 — position and weather

sailwx.info

Track history (hours):
 
Tides and Currents Weather Stations Pressure Air Temp Water Temp Dewpoint Dewpoint Depression Visibility Wind Speed Wind Dir Waves Ship Positions

Amavisti

Last reported at 2016-May-12 03:24 UTC. Time now 2016-May-24 06:07 UTC.
Position N 35°59' W 005°12'.
Warning: this ship's position is 12 days out of date.

Length 116 m; draft 6.6 m.

Type: Cargo ship. MMSI: 305086000.

Date/timePositionNaut miles runAvg speedWind from/ knotsBaromVisibWave heightAir tempDewpointWater temp
2016-May-12 03:24N 35°59' W 005°12'1011.8
2016-May-12 02:34N 36°06' W 005°21'5 0.7
2016-May-11 19:28N 36°02' W 005°24'276 7.9
2016-May-10 08:29N 38°42' W 010°07'11 9.6
2016-May-10 07:17N 38°54' W 010°08'710.1
2016-May-10 06:33N 39°01' W 010°07'1010.1
2016-May-10 05:32N 39°11' W 010°07'  
2016-May-07 16:26N 46°04' W 001°54'910.4
2016-May-07 15:33N 46°08' W 001°42'1010.0
2016-May-07 14:33N 46°07' W 001°27'8 8.4
2016-May-07 13:33N 46°07' W 001°15'3 2.8
2016-May-07 12:32N 46°10' W 001°14'0 0.0
2016-May-07 11:29N 46°10' W 001°14'0 0.0
2016-May-07 10:32N 46°10' W 001°14'0 0.0
2016-May-07 09:32N 46°10' W 001°14'0 0.0
2016-May-07 08:32N 46°10' W 001°14'0 0.0
2016-May-07 07:32N 46°10' W 001°14'0 0.0
2016-May-07 06:32N 46°10' W 001°14'0 0.0
2016-May-07 05:32N 46°10' W 001°14'0 0.0
2016-May-07 04:29N 46°10' W 001°14'0 0.0
2016-May-07 03:32N 46°10' W 001°14'0 0.0
2016-May-07 02:32N 46°10' W 001°14'0 0.0
2016-May-07 01:32N 46°10' W 001°14'0 0.0
2016-May-07 00:32N 46°10' W 001°14'0 0.0
2016-May-06 23:32N 46°10' W 001°14'0 0.0
2016-May-06 22:32N 46°10' W 001°14'0 0.0
2016-May-06 21:32N 46°10' W 001°14'0 0.0
2016-May-06 20:32N 46°10' W 001°14'0 0.0
2016-May-06 19:32N 46°10' W 001°14'0 0.0
2016-May-06 18:32N 46°10' W 001°14'0 0.0
2016-May-06 17:29N 46°10' W 001°14'0 0.0
2016-May-06 16:32N 46°10' W 001°14'0 0.0
2016-May-06 15:32N 46°10' W 001°14'0 0.0
2016-May-06 14:29N 46°10' W 001°14'0 0.0
2016-May-06 13:29N 46°10' W 001°14'0 0.0
2016-May-06 12:32N 46°10' W 001°14'0 0.0
2016-May-06 11:32N 46°10' W 001°14'0 0.1
2016-May-06 10:33N 46°10' W 001°14'6 6.4
2016-May-06 09:33N 46°06' W 001°21'9 9.0
2016-May-06 08:33N 46°07' W 001°34'9 9.0
2016-May-06 07:33N 46°07' W 001°47'5410.7
2016-May-06 02:32N 45°44' W 002°58'20911.3
2016-May-05 08:07N 44°16' W 007°26'610.9
2016-May-05 07:33N 44°14' W 007°34'1210.9
2016-May-05 06:25N 44°09' W 007°49'308 9.8
2016-May-03 23:06N 39°14' W 009°49'610.7
2016-May-03 22:33N 39°08' W 009°49'1110.6
2016-May-03 21:33N 38°57' W 009°50'1010.4
2016-May-03 20:33N 38°47' W 009°50'9 9.5
2016-May-03 19:33N 38°38' W 009°46'1211.2
2016-May-03 18:30N 38°37' W 009°31'1111.5
2016-May-03 17:33N 38°40' W 009°18'10 9.6
2016-May-03 16:31N 38°44' W 009°06'0 0.0
2016-May-03 15:25N 38°44' W 009°06'0 0.0
2016-May-03 14:31N 38°44' W 009°06'0 0.0
2016-May-03 13:31N 38°44' W 009°06'0 0.0
2016-May-03 12:28N 38°44' W 009°06'0 0.0
2016-May-03 11:28N 38°44' W 009°06'0 0.0
2016-May-03 10:31N 38°44' W 009°06'0 0.0
2016-May-03 09:28N 38°44' W 009°06'0 0.0
2016-May-03 08:31N 38°44' W 009°06'0 0.0
2016-May-03 07:31N 38°44' W 009°06'0 0.0
2016-May-03 06:31N 38°44' W 009°06'0 0.0
2016-May-03 05:31N 38°44' W 009°06'0 0.0
2016-May-03 04:31N 38°44' W 009°06'0 0.0
2016-May-03 03:31N 38°44' W 009°06'0 0.0
2016-May-03 02:31N 38°44' W 009°06'0 0.0
2016-May-03 01:31N 38°44' W 009°06'0 0.0
2016-May-03 00:28N 38°44' W 009°06'0 0.0
2016-May-02 23:31N 38°44' W 009°06'0 0.0
2016-May-02 22:28N 38°44' W 009°06'0 0.0
2016-May-02 21:31N 38°44' W 009°06'0 0.0
2016-May-02 20:31N 38°44' W 009°06'0 0.0
2016-May-02 19:31N 38°44' W 009°06'0 0.0
2016-May-02 18:31N 38°44' W 009°06'0 0.0
2016-May-02 17:28N 38°44' W 009°06'0 0.0
2016-May-02 16:31N 38°44' W 009°06'0 0.0
2016-May-02 15:28N 38°44' W 009°06'0 0.0
2016-May-02 13:31N 38°44' W 009°06'0 0.0
2016-May-02 12:28N 38°44' W 009°06'0 0.0
2016-May-02 11:31N 38°44' W 009°06'0 0.0
2016-May-02 10:31N 38°44' W 009°06'0 0.0
2016-May-02 09:28N 38°44' W 009°06'0 0.0
2016-May-02 08:31N 38°44' W 009°06'0 0.0
2016-May-02 07:31N 38°44' W 009°06'0 0.0
2016-May-02 06:31N 38°44' W 009°06'0 0.0
2016-May-02 05:31N 38°44' W 009°06'0 0.0
2016-May-02 04:31N 38°44' W 009°06'0 0.0
2016-May-02 03:31N 38°44' W 009°06'  
Track history (hours):
 
Tides and Currents Weather Stations Pressure Air Temp Water Temp Dewpoint Dewpoint Depression Visibility Wind Speed Wind Dir Waves Ship Positions

Amavisti

Last reported at 2016-May-12 03:24 UTC. Time now 2016-May-24 06:07 UTC.
Position N 35°59' W 005°12'.
Warning: this ship's position is 12 days out of date.

Length 116 m; draft 6.6 m.

Type: Cargo ship. MMSI: 305086000.

Date/timePositionNaut miles runAvg speedWind from/ knotsBaromVisibWave heightAir tempDewpointWater temp
2016-May-12 03:24N 35°59' W 005°12'1011.8
2016-May-12 02:34N 36°06' W 005°21'5 0.7
2016-May-11 19:28N 36°02' W 005°24'276 7.9
2016-May-10 08:29N 38°42' W 010°07'11 9.6
2016-May-10 07:17N 38°54' W 010°08'710.1
2016-May-10 06:33N 39°01' W 010°07'1010.1
2016-May-10 05:32N 39°11' W 010°07'  
2016-May-07 16:26N 46°04' W 001°54'910.4
2016-May-07 15:33N 46°08' W 001°42'1010.0
2016-May-07 14:33N 46°07' W 001°27'8 8.4
2016-May-07 13:33N 46°07' W 001°15'3 2.8
2016-May-07 12:32N 46°10' W 001°14'0 0.0
2016-May-07 11:29N 46°10' W 001°14'0 0.0
2016-May-07 10:32N 46°10' W 001°14'0 0.0
2016-May-07 09:32N 46°10' W 001°14'0 0.0
2016-May-07 08:32N 46°10' W 001°14'0 0.0
2016-May-07 07:32N 46°10' W 001°14'0 0.0
2016-May-07 06:32N 46°10' W 001°14'0 0.0
2016-May-07 05:32N 46°10' W 001°14'0 0.0
2016-May-07 04:29N 46°10' W 001°14'0 0.0
2016-May-07 03:32N 46°10' W 001°14'0 0.0
2016-May-07 02:32N 46°10' W 001°14'0 0.0
2016-May-07 01:32N 46°10' W 001°14'0 0.0
2016-May-07 00:32N 46°10' W 001°14'0 0.0
2016-May-06 23:32N 46°10' W 001°14'0 0.0
2016-May-06 22:32N 46°10' W 001°14'0 0.0
2016-May-06 21:32N 46°10' W 001°14'0 0.0
2016-May-06 20:32N 46°10' W 001°14'0 0.0
2016-May-06 19:32N 46°10' W 001°14'0 0.0
2016-May-06 18:32N 46°10' W 001°14'0 0.0
2016-May-06 17:29N 46°10' W 001°14'0 0.0
2016-May-06 16:32N 46°10' W 001°14'0 0.0
2016-May-06 15:32N 46°10' W 001°14'0 0.0
2016-May-06 14:29N 46°10' W 001°14'0 0.0
2016-May-06 13:29N 46°10' W 001°14'0 0.0
2016-May-06 12:32N 46°10' W 001°14'0 0.0
2016-May-06 11:32N 46°10' W 001°14'0 0.1
2016-May-06 10:33N 46°10' W 001°14'6 6.4
2016-May-06 09:33N 46°06' W 001°21'9 9.0
2016-May-06 08:33N 46°07' W 001°34'9 9.0
2016-May-06 07:33N 46°07' W 001°47'5410.7
2016-May-06 02:32N 45°44' W 002°58'20911.3
2016-May-05 08:07N 44°16' W 007°26'610.9
2016-May-05 07:33N 44°14' W 007°34'1210.9
2016-May-05 06:25N 44°09' W 007°49'308 9.8
2016-May-03 23:06N 39°14' W 009°49'610.7
2016-May-03 22:33N 39°08' W 009°49'1110.6
2016-May-03 21:33N 38°57' W 009°50'1010.4
2016-May-03 20:33N 38°47' W 009°50'9 9.5
2016-May-03 19:33N 38°38' W 009°46'1211.2
2016-May-03 18:30N 38°37' W 009°31'1111.5
2016-May-03 17:33N 38°40' W 009°18'10 9.6
2016-May-03 16:31N 38°44' W 009°06'0 0.0
2016-May-03 15:25N 38°44' W 009°06'0 0.0
2016-May-03 14:31N 38°44' W 009°06'0 0.0
2016-May-03 13:31N 38°44' W 009°06'0 0.0
2016-May-03 12:28N 38°44' W 009°06'0 0.0
2016-May-03 11:28N 38°44' W 009°06'0 0.0
2016-May-03 10:31N 38°44' W 009°06'0 0.0
2016-May-03 09:28N 38°44' W 009°06'0 0.0
2016-May-03 08:31N 38°44' W 009°06'0 0.0
2016-May-03 07:31N 38°44' W 009°06'0 0.0
2016-May-03 06:31N 38°44' W 009°06'0 0.0
2016-May-03 05:31N 38°44' W 009°06'0 0.0
2016-May-03 04:31N 38°44' W 009°06'0 0.0
2016-May-03 03:31N 38°44' W 009°06'0 0.0
2016-May-03 02:31N 38°44' W 009°06'0 0.0
2016-May-03 01:31N 38°44' W 009°06'0 0.0
2016-May-03 00:28N 38°44' W 009°06'0 0.0
2016-May-02 23:31N 38°44' W 009°06'0 0.0
2016-May-02 22:28N 38°44' W 009°06'0 0.0
2016-May-02 21:31N 38°44' W 009°06'0 0.0
2016-May-02 20:31N 38°44' W 009°06'0 0.0
2016-May-02 19:31N 38°44' W 009°06'0 0.0
2016-May-02 18:31N 38°44' W 009°06'0 0.0
2016-May-02 17:28N 38°44' W 009°06'0 0.0
2016-May-02 16:31N 38°44' W 009°06'0 0.0
2016-May-02 15:28N 38°44' W 009°06'0 0.0
2016-May-02 13:31N 38°44' W 009°06'0 0.0
2016-May-02 12:28N 38°44' W 009°06'0 0.0
2016-May-02 11:31N 38°44' W 009°06'0 0.0
2016-May-02 10:31N 38°44' W 009°06'0 0.0
2016-May-02 09:28N 38°44' W 009°06'0 0.0
2016-May-02 08:31N 38°44' W 009°06'0 0.0
2016-May-02 07:31N 38°44' W 009°06'0 0.0
2016-May-02 06:31N 38°44' W 009°06'0 0.0
2016-May-02 05:31N 38°44' W 009°06'0 0.0
2016-May-02 04:31N 38°44' W 009°06'0 0.0
2016-May-02 03:31N 38°44' W 009°06'  

Dump ship's entire track history